Time;durP1;ratioP1;P1;durP2;ratioP2;P2;SDS_P1;SDS_P2;PMS_P1;PMS_P2;Temp;Humidity;BMP_temperature;BMP_pressure;BME280_temperature;BME280_humidity;BME280_pressure;Samples;Min_cycle;Max_cycle;Signal;HPM_P1;HPM_P2
2023/07/20 00:01:28;;;;;;;50.63;46.90;;;;;;;;;;5058721;28;20493;-84
2023/07/20 00:03:55;;;;;;;50.20;46.90;;;;;;;;;;5059522;28;20887;-83
2023/07/20 00:06:23;;;;;;;50.50;46.83;;;;;;;;;;5059475;28;20517;-84
2023/07/20 00:08:50;;;;;;;47.20;44.10;;;;;;;;;;5058915;28;20919;-82
2023/07/20 00:11:18;;;;;;;46.43;43.27;;;;;;;;;;5058631;28;20464;-83
2023/07/20 00:13:46;;;;;;;43.80;40.70;;;;;;;;;;5059043;28;20462;-82
2023/07/20 00:16:13;;;;;;;43.07;40.13;;;;;;;;;;5058944;28;20421;-82
2023/07/20 00:18:40;;;;;;;44.33;41.20;;;;;;;;;;5058477;28;20416;-82
2023/07/20 00:21:07;;;;;;;42.40;39.60;;;;;;;;;;5058343;28;20514;-82
2023/07/20 00:23:34;;;;;;;43.20;40.13;;;;;;;;;;5058263;28;20447;-83
2023/07/20 00:26:02;;;;;;;44.03;41.03;;;;;;;;;;5058477;28;20963;-84
2023/07/20 00:28:29;;;;;;;44.60;41.43;;;;;;;;;;5057087;28;20483;-82
2023/07/20 00:30:57;;;;;;;43.20;39.97;;;;;;;;;;5058579;28;20441;-84
2023/07/20 00:33:24;;;;;;;43.00;40.07;;;;;;;;;;5057388;28;20496;-83
2023/07/20 00:35:52;;;;;;;41.57;38.53;;;;;;;;;;5058113;28;20866;-84
2023/07/20 00:38:20;;;;;;;47.23;43.47;;;;;;;;;;5058515;28;20989;-85
2023/07/20 00:40:48;;;;;;;44.97;41.53;;;;;;;;;;5061431;28;21052;-83
2023/07/20 00:43:15;;;;;;;43.80;40.50;;;;;;;;;;5062637;28;20450;-83
2023/07/20 00:45:42;;;;;;;43.37;40.23;;;;;;;;;;5063051;28;20442;-83
2023/07/20 00:48:11;;;;;;;44.40;40.63;;;;;;;;;;5061867;28;20441;-83
2023/07/20 00:50:38;;;;;;;44.10;40.63;;;;;;;;;;5061116;28;20442;-84
2023/07/20 00:53:05;;;;;;;46.03;42.73;;;;;;;;;;5062064;28;20434;-84
2023/07/20 00:55:33;;;;;;;41.70;38.70;;;;;;;;;;5061856;28;20441;-83
2023/07/20 00:58:00;;;;;;;42.73;39.70;;;;;;;;;;5062012;28;20450;-82
2023/07/20 01:00:27;;;;;;;43.80;40.50;;;;;;;;;;5060885;28;20886;-82
2023/07/20 01:02:57;;;;;;;43.37;40.20;;;;;;;;;;5061835;28;20528;-82
2023/07/20 01:05:32;;;;;;;43.40;40.00;;;;;;;;;;5061614;28;20579;-83
2023/07/20 01:08:02;;;;;;;43.97;40.57;;;;;;;;;;5061527;28;20881;-82
2023/07/20 01:10:31;;;;;;;45.70;42.10;;;;;;;;;;5060775;28;20630;-83
2023/07/20 01:12:58;;;;;;;43.97;40.87;;;;;;;;;;5061494;28;20439;-82
2023/07/20 01:15:25;;;;;;;44.80;40.87;;;;;;;;;;5061304;28;20496;-84
2023/07/20 01:17:53;;;;;;;44.57;41.07;;;;;;;;;;5060917;28;20446;-82
2023/07/20 01:20:20;;;;;;;43.37;40.00;;;;;;;;;;5060738;28;20451;-84
2023/07/20 01:22:59;;;;;;;44.70;40.87;;;;;;;;;;5060598;28;20463;-84
2023/07/20 01:25:32;;;;;;;44.80;41.30;;;;;;;;;;5060192;28;20434;-84
2023/07/20 01:28:11;;;;;;;43.53;40.30;;;;;;;;;;5060399;28;20441;-84
2023/07/20 01:30:48;;;;;;;43.30;40.10;;;;;;;;;;5059882;28;20440;-83
2023/07/20 01:33:18;;;;;;;45.07;41.80;;;;;;;;;;5060155;28;20454;-84
2023/07/20 01:35:46;;;;;;;43.87;40.33;;;;;;;;;;5060568;28;20426;-82
2023/07/20 01:38:13;;;;;;;42.63;39.53;;;;;;;;;;5060573;28;20458;-82
2023/07/20 01:40:41;;;;;;;41.63;38.43;;;;;;;;;;5059334;28;20499;-84
2023/07/20 01:43:09;;;;;;;44.43;41.40;;;;;;;;;;5060065;28;20434;-82
2023/07/20 01:45:36;;;;;;;41.43;38.23;;;;;;;;;;5060431;28;20443;-83
2023/07/20 01:48:04;;;;;;;42.80;39.37;;;;;;;;;;5060336;28;20421;-83
2023/07/20 01:50:34;;;;;;;43.40;40.10;;;;;;;;;;5058604;28;20422;-83
2023/07/20 01:53:01;;;;;;;44.50;40.70;;;;;;;;;;5060163;28;20441;-82
2023/07/20 01:55:28;;;;;;;49.40;45.63;;;;;;;;;;5060630;28;20455;-84
2023/07/20 01:57:56;;;;;;;45.43;41.10;;;;;;;;;;5060795;28;20466;-83
2023/07/20 02:00:24;;;;;;;45.33;41.27;;;;;;;;;;5059624;28;20764;-84
2023/07/20 02:02:51;;;;;;;49.30;44.60;;;;;;;;;;5059974;28;20433;-82
2023/07/20 02:05:18;;;;;;;47.80;43.70;;;;;;;;;;5059483;28;20821;-83
2023/07/20 02:07:47;;;;;;;50.30;45.90;;;;;;;;;;5059687;28;20405;-82
2023/07/20 02:10:14;;;;;;;50.10;45.80;;;;;;;;;;5059004;28;20791;-82
2023/07/20 02:12:41;;;;;;;51.07;46.37;;;;;;;;;;5058724;28;20459;-82
2023/07/20 02:15:09;;;;;;;48.30;44.10;;;;;;;;;;5060020;28;20565;-82
2023/07/20 02:17:36;;;;;;;49.70;45.30;;;;;;;;;;5060571;28;20450;-83
2023/07/20 02:20:04;;;;;;;50.60;46.10;;;;;;;;;;5059485;28;20441;-84
2023/07/20 02:22:31;;;;;;;51.73;47.40;;;;;;;;;;5058845;28;20497;-84
2023/07/20 02:24:59;;;;;;;50.70;46.40;;;;;;;;;;5060421;28;20450;-83
2023/07/20 02:27:26;;;;;;;53.77;49.17;;;;;;;;;;5060212;28;20454;-83
2023/07/20 02:29:53;;;;;;;51.10;46.70;;;;;;;;;;5059091;28;20458;-83
2023/07/20 02:32:20;;;;;;;54.67;49.57;;;;;;;;;;5059686;28;20464;-82
2023/07/20 02:34:48;;;;;;;53.27;48.47;;;;;;;;;;5057898;28;20481;-84
2023/07/20 02:37:15;;;;;;;54.13;49.13;;;;;;;;;;5058941;28;20439;-82
2023/07/20 02:39:42;;;;;;;56.17;51.03;;;;;;;;;;5056772;28;20962;-82
2023/07/20 02:42:10;;;;;;;54.47;49.57;;;;;;;;;;5057399;28;20498;-84
2023/07/20 02:44:37;;;;;;;55.40;49.63;;;;;;;;;;5057371;28;20510;-83
2023/07/20 02:47:04;;;;;;;55.60;49.83;;;;;;;;;;5057867;28;20452;-82
2023/07/20 02:49:31;;;;;;;54.97;49.70;;;;;;;;;;5056687;28;20435;-84
2023/07/20 02:51:58;;;;;;;57.17;51.07;;;;;;;;;;5056747;28;20453;-82
2023/07/20 02:54:25;;;;;;;57.10;51.60;;;;;;;;;;5057598;28;20458;-83
2023/07/20 02:56:52;;;;;;;56.63;51.17;;;;;;;;;;5057900;28;20454;-82
2023/07/20 02:59:21;;;;;;;56.50;50.90;;;;;;;;;;5057311;28;20454;-83
2023/07/20 03:01:48;;;;;;;54.97;49.50;;;;;;;;;;5056605;28;20501;-82
2023/07/20 03:04:16;;;;;;;56.77;50.80;;;;;;;;;;5057368;28;20459;-83
2023/07/20 03:06:43;;;;;;;58.87;52.87;;;;;;;;;;5057295;28;20668;-82
2023/07/20 03:09:10;;;;;;;58.40;52.60;;;;;;;;;;5057346;28;20577;-82
2023/07/20 03:11:37;;;;;;;56.70;50.63;;;;;;;;;;5057648;28;20463;-82
2023/07/20 03:14:04;;;;;;;56.90;50.50;;;;;;;;;;5058069;28;20462;-82
2023/07/20 03:16:33;;;;;;;57.27;51.70;;;;;;;;;;5056224;28;20557;-82
2023/07/20 03:19:01;;;;;;;59.33;53.13;;;;;;;;;;5056310;28;20462;-83
2023/07/20 03:21:28;;;;;;;56.30;50.30;;;;;;;;;;5056896;28;20493;-83
2023/07/20 03:23:55;;;;;;;61.13;54.10;;;;;;;;;;5056982;28;20961;-82
2023/07/20 03:26:22;;;;;;;56.60;50.87;;;;;;;;;;5056528;28;20455;-82
2023/07/20 03:28:50;;;;;;;59.73;53.80;;;;;;;;;;5056708;28;20429;-82
2023/07/20 03:31:17;;;;;;;65.07;54.80;;;;;;;;;;5056336;28;20556;-82
2023/07/20 03:33:45;;;;;;;64.53;57.83;;;;;;;;;;5056841;28;20433;-82
2023/07/20 03:36:13;;;;;;;61.00;54.60;;;;;;;;;;5056741;28;20443;-82
2023/07/20 03:38:40;;;;;;;66.57;59.40;;;;;;;;;;5056922;28;20464;-82
2023/07/20 03:41:07;;;;;;;63.07;56.70;;;;;;;;;;5056637;28;20445;-84
2023/07/20 03:43:34;;;;;;;62.23;55.20;;;;;;;;;;5056596;28;20478;-82
2023/07/20 03:46:01;;;;;;;55.80;50.40;;;;;;;;;;5056882;28;20476;-83
2023/07/20 03:48:28;;;;;;;56.17;50.37;;;;;;;;;;5056531;28;20466;-81
2023/07/20 03:50:56;;;;;;;59.00;51.80;;;;;;;;;;5057758;28;20471;-84
2023/07/20 03:53:23;;;;;;;54.57;48.70;;;;;;;;;;5056735;28;20467;-83
2023/07/20 03:55:51;;;;;;;55.00;49.50;;;;;;;;;;5056618;28;20450;-83
2023/07/20 03:58:19;;;;;;;56.50;50.77;;;;;;;;;;5056528;28;20454;-83
2023/07/20 04:00:47;;;;;;;57.43;51.70;;;;;;;;;;5056485;28;20462;-83
2023/07/20 04:03:14;;;;;;;71.33;56.23;;;;;;;;;;5057387;28;20494;-84
2023/07/20 04:05:41;;;;;;;93.60;85.80;;;;;;;;;;5057444;28;20470;-83
2023/07/20 04:08:10;;;;;;;86.67;80.23;;;;;;;;;;5057647;28;20944;-83
2023/07/20 04:10:38;;;;;;;72.50;66.17;;;;;;;;;;5057184;28;20471;-85
2023/07/20 04:13:05;;;;;;;67.10;61.90;;;;;;;;;;5057950;28;20932;-83
2023/07/20 04:15:32;;;;;;;65.67;60.50;;;;;;;;;;5061509;28;20458;-84
2023/07/20 04:17:59;;;;;;;57.97;53.73;;;;;;;;;;5061820;28;20486;-85
2023/07/20 04:20:27;;;;;;;60.43;56.13;;;;;;;;;;5060013;28;21015;-83
2023/07/20 04:22:54;;;;;;;54.67;50.77;;;;;;;;;;5061447;28;20859;-83
2023/07/20 04:25:22;;;;;;;53.53;50.03;;;;;;;;;;5061062;28;20435;-83
2023/07/20 04:27:49;;;;;;;54.77;50.70;;;;;;;;;;5060718;28;20459;-83
2023/07/20 04:30:20;;;;;;;52.27;48.87;;;;;;;;;;5059667;28;20466;-83
2023/07/20 04:32:47;;;;;;;50.63;47.33;;;;;;;;;;5060744;28;20466;-82
2023/07/20 04:35:18;;;;;;;51.50;48.20;;;;;;;;;;5059824;28;20425;-84
2023/07/20 04:37:46;;;;;;;48.83;45.53;;;;;;;;;;5059135;28;20430;-84
2023/07/20 04:40:13;;;;;;;50.00;46.77;;;;;;;;;;5057949;28;20545;-84
2023/07/20 04:42:41;;;;;;;50.63;47.33;;;;;;;;;;5057509;28;20465;-84
2023/07/20 04:45:09;;;;;;;51.20;47.57;;;;;;;;;;5058692;28;20450;-85
2023/07/20 04:47:36;;;;;;;52.17;48.67;;;;;;;;;;5058578;28;20421;-86
2023/07/20 04:50:03;;;;;;;49.90;46.40;;;;;;;;;;5057765;28;20445;-84
2023/07/20 04:52:30;;;;;;;49.47;46.07;;;;;;;;;;5057627;28;20493;-84
2023/07/20 04:54:58;;;;;;;51.37;47.87;;;;;;;;;;5058291;28;20435;-84
2023/07/20 04:57:25;;;;;;;50.87;47.30;;;;;;;;;;5058002;28;20451;-84
2023/07/20 04:59:54;;;;;;;50.57;47.27;;;;;;;;;;5057363;28;20484;-85
2023/07/20 05:02:21;;;;;;;52.80;48.97;;;;;;;;;;5056484;28;20482;-86
2023/07/20 05:04:48;;;;;;;50.53;47.13;;;;;;;;;;5057162;28;20451;-85
2023/07/20 05:07:15;;;;;;;49.30;46.00;;;;;;;;;;5057036;28;20429;-85
2023/07/20 05:09:42;;;;;;;46.20;43.20;;;;;;;;;;5055810;28;20436;-86
2023/07/20 05:12:11;;;;;;;48.50;45.33;;;;;;;;;;5057410;28;20467;-86
2023/07/20 05:14:39;;;;;;;44.87;41.90;;;;;;;;;;5056616;28;20424;-87
2023/07/20 05:17:07;;;;;;;48.80;45.50;;;;;;;;;;5056004;28;21010;-86
2023/07/20 05:19:34;;;;;;;46.63;43.57;;;;;;;;;;5055058;28;20433;-86
2023/07/20 05:22:01;;;;;;;43.37;40.67;;;;;;;;;;5058381;28;20457;-87
2023/07/20 05:24:28;;;;;;;43.53;40.93;;;;;;;;;;5057285;28;20428;-85
2023/07/20 05:26:55;;;;;;;42.70;40.07;;;;;;;;;;5055746;28;20421;-87
2023/07/20 05:29:23;;;;;;;39.80;37.30;;;;;;;;;;5055752;28;20442;-87
2023/07/20 05:31:50;;;;;;;39.50;37.20;;;;;;;;;;5056371;28;20478;-87
2023/07/20 05:34:18;;;;;;;41.30;38.30;;;;;;;;;;5056517;28;20454;-87
2023/07/20 05:36:45;;;;;;;39.53;37.03;;;;;;;;;;5055952;28;20409;-86
2023/07/20 05:39:12;;;;;;;39.33;36.97;;;;;;;;;;5056056;28;20464;-87
2023/07/20 05:41:39;;;;;;;38.83;36.63;;;;;;;;;;5056051;28;20494;-87
2023/07/20 05:44:06;;;;;;;40.03;37.73;;;;;;;;;;5057050;28;20450;-85
2023/07/20 05:46:33;;;;;;;34.80;32.90;;;;;;;;;;5056535;28;20417;-86
2023/07/20 05:49:01;;;;;;;31.23;29.53;;;;;;;;;;5055924;28;20417;-85
2023/07/20 05:51:29;;;;;;;32.67;30.53;;;;;;;;;;5056247;28;20475;-84
2023/07/20 05:53:56;;;;;;;31.67;29.87;;;;;;;;;;5055613;28;20478;-89
2023/07/20 05:56:24;;;;;;;32.63;30.63;;;;;;;;;;5054979;28;20439;-90
2023/07/20 05:58:51;;;;;;;29.60;28.00;;;;;;;;;;5054546;28;20426;-90
2023/07/20 06:01:19;;;;;;;29.87;28.07;;;;;;;;;;5054540;28;20455;-90
2023/07/20 06:03:46;;;;;;;27.43;26.03;;;;;;;;;;5054675;28;20885;-89
2023/07/20 06:06:13;;;;;;;27.27;25.87;;;;;;;;;;5055220;28;20435;-90
2023/07/20 06:08:41;;;;;;;26.57;25.23;;;;;;;;;;5054609;28;20863;-89
2023/07/20 06:11:09;;;;;;;24.70;23.50;;;;;;;;;;5054533;28;20489;-90
2023/07/20 06:13:36;;;;;;;26.03;24.63;;;;;;;;;;5055041;28;20460;-90
2023/07/20 06:16:03;;;;;;;24.87;23.57;;;;;;;;;;5055300;28;20458;-87
2023/07/20 06:18:31;;;;;;;25.07;23.37;;;;;;;;;;5054031;28;20432;-86
2023/07/20 06:20:58;;;;;;;25.03;23.63;;;;;;;;;;5054401;28;20498;-86
2023/07/20 06:23:25;;;;;;;22.83;21.70;;;;;;;;;;5055180;28;21003;-86
2023/07/20 06:25:53;;;;;;;22.67;21.47;;;;;;;;;;5055384;28;20446;-86
2023/07/20 06:28:20;;;;;;;22.87;21.77;;;;;;;;;;5055065;28;20459;-87
2023/07/20 06:30:47;;;;;;;22.10;20.90;;;;;;;;;;5054267;28;20497;-86
2023/07/20 06:33:15;;;;;;;23.50;22.30;;;;;;;;;;5054666;28;20975;-86
2023/07/20 06:35:43;;;;;;;21.67;20.67;;;;;;;;;;5054637;28;20437;-86
2023/07/20 06:38:10;;;;;;;23.17;22.07;;;;;;;;;;5054575;28;20493;-86
2023/07/20 06:40:37;;;;;;;24.10;22.70;;;;;;;;;;5053648;28;20501;-87
2023/07/20 06:43:06;;;;;;;22.13;21.03;;;;;;;;;;5053761;28;20493;-86
2023/07/20 06:45:33;;;;;;;22.60;21.20;;;;;;;;;;5054645;28;20439;-87
2023/07/20 06:48:00;;;;;;;21.63;20.53;;;;;;;;;;5054529;28;20485;-87
2023/07/20 06:50:27;;;;;;;23.23;21.93;;;;;;;;;;5053596;28;20925;-86
2023/07/20 06:53:19;;;;;;;22.60;21.40;;;;;;;;;;5054317;28;20458;-87
2023/07/20 06:55:46;;;;;;;22.20;20.90;;;;;;;;;;5054387;28;20434;-86
2023/07/20 06:58:14;;;;;;;21.40;20.37;;;;;;;;;;5054117;28;20439;-86
2023/07/20 07:00:42;;;;;;;21.70;20.60;;;;;;;;;;5053472;28;20486;-86
2023/07/20 07:03:09;;;;;;;22.10;21.00;;;;;;;;;;5053986;28;20514;-86
2023/07/20 07:05:37;;;;;;;22.80;21.60;;;;;;;;;;5054384;28;20443;-87
2023/07/20 07:08:05;;;;;;;23.40;22.20;;;;;;;;;;5054030;28;20445;-85
2023/07/20 07:10:32;;;;;;;21.10;20.00;;;;;;;;;;5052914;28;20916;-87
2023/07/20 07:13:00;;;;;;;21.67;20.47;;;;;;;;;;5054015;28;20779;-86
2023/07/20 07:15:28;;;;;;;20.33;19.33;;;;;;;;;;5054651;28;20799;-87
2023/07/20 07:17:55;;;;;;;21.20;20.17;;;;;;;;;;5054104;28;20457;-86
2023/07/20 07:20:23;;;;;;;20.40;19.50;;;;;;;;;;5059471;28;20451;-85
2023/07/20 07:22:52;;;;;;;19.50;18.50;;;;;;;;;;5053607;28;20453;-90
2023/07/20 07:25:20;;;;;;;19.13;18.10;;;;;;;;;;5054029;28;20455;-87
2023/07/20 07:27:47;;;;;;;19.90;18.70;;;;;;;;;;5054199;28;20744;-87
2023/07/20 07:30:14;;;;;;;19.30;18.20;;;;;;;;;;5057972;28;20918;-88
2023/07/20 07:32:43;;;;;;;19.40;18.30;;;;;;;;;;5074632;28;20454;-84
2023/07/20 07:35:11;;;;;;;19.50;18.50;;;;;;;;;;5075467;28;20447;-88
2023/07/20 07:37:38;;;;;;;18.47;17.47;;;;;;;;;;5075451;28;20435;-87
2023/07/20 07:40:06;;;;;;;19.90;18.90;;;;;;;;;;5075095;28;21053;-82
2023/07/20 07:42:33;;;;;;;19.90;18.90;;;;;;;;;;5075328;28;20474;-81
2023/07/20 07:45:00;;;;;;;17.97;17.10;;;;;;;;;;5075514;28;20868;-83
2023/07/20 07:47:28;;;;;;;19.07;18.10;;;;;;;;;;5076029;28;20428;-83
2023/07/20 07:49:57;;;;;;;18.90;18.00;;;;;;;;;;5074410;28;20465;-81
2023/07/20 07:52:24;;;;;;;18.17;17.27;;;;;;;;;;5075531;28;20458;-81
2023/07/20 07:54:51;;;;;;;18.73;17.63;;;;;;;;;;5075535;28;20449;-81
2023/07/20 07:57:18;;;;;;;19.60;18.40;;;;;;;;;;5073169;28;20438;-79
2023/07/20 07:59:45;;;;;;;18.40;17.50;;;;;;;;;;5070868;28;20445;-79
2023/07/20 08:02:12;;;;;;;19.03;18.03;;;;;;;;;;5070502;28;20485;-79
2023/07/20 08:04:39;;;;;;;19.70;18.60;;;;;;;;;;5071279;28;20513;-79
2023/07/20 08:07:08;;;;;;;19.23;18.13;;;;;;;;;;5072447;28;20478;-88
2023/07/20 08:09:35;;;;;;;19.40;18.40;;;;;;;;;;5073515;28;20434;-88
2023/07/20 08:12:03;;;;;;;19.47;18.37;;;;;;;;;;5073695;28;20450;-85
2023/07/20 08:14:30;;;;;;;19.40;18.40;;;;;;;;;;5073966;28;20442;-87
2023/07/20 08:16:58;;;;;;;19.53;18.27;;;;;;;;;;5074606;28;20931;-88
2023/07/20 08:19:25;;;;;;;19.17;18.07;;;;;;;;;;5073836;28;20809;-88
2023/07/20 08:21:52;;;;;;;19.73;18.73;;;;;;;;;;5074867;28;20502;-88
2023/07/20 08:24:20;;;;;;;19.50;18.50;;;;;;;;;;5074692;28;20485;-88
2023/07/20 08:26:47;;;;;;;19.40;18.40;;;;;;;;;;5074813;28;20413;-90
2023/07/20 08:29:14;;;;;;;19.67;18.67;;;;;;;;;;5073748;28;20416;-90
2023/07/20 08:31:41;;;;;;;19.87;18.77;;;;;;;;;;5073734;28;20485;-90
2023/07/20 08:34:08;;;;;;;19.43;18.33;;;;;;;;;;5074330;28;20446;-90
2023/07/20 08:36:36;;;;;;;19.83;18.73;;;;;;;;;;5074132;28;20416;-90
2023/07/20 08:39:03;;;;;;;19.43;18.43;;;;;;;;;;5074163;28;20421;-89
2023/07/20 08:41:32;;;;;;;19.20;18.10;;;;;;;;;;5074871;28;20502;-90
2023/07/20 08:44:00;;;;;;;19.63;18.53;;;;;;;;;;5074268;28;20489;-90
2023/07/20 08:46:28;;;;;;;19.37;18.33;;;;;;;;;;5074528;28;20421;-90
2023/07/20 08:48:55;;;;;;;19.77;18.60;;;;;;;;;;5074228;28;20933;-90
2023/07/20 08:51:23;;;;;;;19.90;18.80;;;;;;;;;;5074439;28;20460;-90
2023/07/20 08:53:52;;;;;;;20.60;19.50;;;;;;;;;;5074297;28;20445;-90
2023/07/20 08:56:20;;;;;;;20.50;19.40;;;;;;;;;;5074087;28;20430;-90
2023/07/20 08:58:48;;;;;;;20.30;19.20;;;;;;;;;;5073881;28;20446;-90
2023/07/20 09:01:16;;;;;;;19.80;18.70;;;;;;;;;;5077054;28;20432;-90
2023/07/20 09:03:44;;;;;;;19.50;18.50;;;;;;;;;;5077619;28;20484;-89
2023/07/20 09:06:11;;;;;;;19.43;18.43;;;;;;;;;;5077904;28;20421;-90
2023/07/20 09:08:39;;;;;;;20.17;19.07;;;;;;;;;;5077420;28;20441;-90
2023/07/20 09:11:06;;;;;;;20.70;19.60;;;;;;;;;;5077877;28;20961;-89
2023/07/20 09:13:33;;;;;;;20.87;19.67;;;;;;;;;;5077669;28;21292;-90
2023/07/20 09:16:03;;;;;;;20.80;19.50;;;;;;;;;;5077580;28;20458;-90
2023/07/20 09:18:31;;;;;;;21.63;20.40;;;;;;;;;;5076872;28;20449;-90
2023/07/20 09:21:03;;;;;;;21.50;20.30;;;;;;;;;;5077432;28;20499;-90
2023/07/20 09:23:33;;;;;;;21.00;19.70;;;;;;;;;;5077294;28;20987;-90
2023/07/20 09:26:00;;;;;;;21.37;20.17;;;;;;;;;;5077559;28;20963;-89
2023/07/20 09:28:28;;;;;;;20.80;19.60;;;;;;;;;;5076709;28;20906;-90
2023/07/20 09:30:57;;;;;;;20.37;19.27;;;;;;;;;;5077227;28;20493;-89
2023/07/20 09:33:25;;;;;;;21.10;19.90;;;;;;;;;;5077302;28;20497;-90
2023/07/20 09:35:52;;;;;;;21.90;20.70;;;;;;;;;;5077266;28;20442;-90
2023/07/20 09:38:20;;;;;;;22.10;20.90;;;;;;;;;;5076596;28;20925;-90
2023/07/20 09:40:47;;;;;;;21.97;20.70;;;;;;;;;;5077085;28;20491;-90
2023/07/20 09:43:14;;;;;;;21.80;20.50;;;;;;;;;;5077096;28;20835;-90
2023/07/20 09:45:42;;;;;;;22.10;20.80;;;;;;;;;;5076983;28;20914;-89
2023/07/20 09:48:10;;;;;;;22.67;21.27;;;;;;;;;;5077086;28;20467;-90
2023/07/20 09:50:43;;;;;;;22.70;21.30;;;;;;;;;;5076416;28;20917;-89
2023/07/20 09:53:34;;;;;;;22.37;21.07;;;;;;;;;;5077576;28;20487;-90
2023/07/20 09:56:01;;;;;;;21.90;20.60;;;;;;;;;;5077073;28;20400;-90
2023/07/20 09:58:28;;;;;;;22.07;20.47;;;;;;;;;;5076187;28;20453;-90
2023/07/20 10:00:57;;;;;;;21.23;19.93;;;;;;;;;;5077541;28;20452;-90
2023/07/20 10:03:26;;;;;;;22.63;21.13;;;;;;;;;;5076935;28;20483;-90
2023/07/20 10:05:58;;;;;;;22.20;21.00;;;;;;;;;;5077450;28;20536;-90
2023/07/20 10:08:26;;;;;;;22.30;21.00;;;;;;;;;;5076479;28;20416;-90
2023/07/20 10:10:53;;;;;;;21.80;20.50;;;;;;;;;;5077333;28;20505;-89
2023/07/20 10:13:27;;;;;;;21.40;20.00;;;;;;;;;;5076355;28;21234;-89
2023/07/20 10:15:56;;;;;;;21.90;20.60;;;;;;;;;;5076535;28;20449;-89
2023/07/20 10:18:28;;;;;;;21.50;20.30;;;;;;;;;;5076042;28;20401;-91
2023/07/20 10:20:56;;;;;;;21.37;20.07;;;;;;;;;;5076540;28;20436;-89
2023/07/20 10:23:24;;;;;;;21.53;20.20;;;;;;;;;;5076490;28;20438;-89
2023/07/20 10:25:51;;;;;;;21.80;20.60;;;;;;;;;;5077077;28;20434;-90
2023/07/20 10:28:19;;;;;;;21.77;20.37;;;;;;;;;;5076262;28;20427;-90
2023/07/20 10:30:46;;;;;;;21.90;20.50;;;;;;;;;;5076023;28;20449;-89
2023/07/20 10:33:13;;;;;;;22.10;20.70;;;;;;;;;;5076614;28;20450;-89
2023/07/20 10:35:54;;;;;;;21.53;20.13;;;;;;;;;;5076770;28;20937;-89
2023/07/20 10:38:39;;;;;;;21.70;20.40;;;;;;;;;;5075882;28;20436;-90
2023/07/20 10:41:17;;;;;;;20.97;19.87;;;;;;;;;;5076273;28;20811;-89
2023/07/20 10:43:45;;;;;;;20.57;19.47;;;;;;;;;;5075874;28;20436;-89
2023/07/20 10:46:12;;;;;;;20.83;19.63;;;;;;;;;;5075825;28;20424;-90
2023/07/20 10:49:01;;;;;;;21.87;20.57;;;;;;;;;;5075240;28;20951;-89
2023/07/20 10:51:29;;;;;;;22.33;21.03;;;;;;;;;;5075990;28;20481;-89
2023/07/20 10:53:58;;;;;;;22.37;21.07;;;;;;;;;;5075857;28;20416;-89
2023/07/20 10:56:27;;;;;;;22.63;21.33;;;;;;;;;;5075855;28;20442;-89
2023/07/20 10:58:57;;;;;;;21.40;20.10;;;;;;;;;;5075774;28;20465;-89
2023/07/20 11:01:29;;;;;;;21.73;20.43;;;;;;;;;;5075686;28;20452;-89
2023/07/20 11:04:00;;;;;;;22.70;21.40;;;;;;;;;;5075534;28;20457;-89
2023/07/20 11:06:34;;;;;;;22.93;21.63;;;;;;;;;;5076083;28;20413;-90
2023/07/20 11:09:07;;;;;;;22.47;21.07;;;;;;;;;;5075752;28;20441;-89
2023/07/20 11:11:35;;;;;;;21.73;20.53;;;;;;;;;;5077311;28;20454;-89
2023/07/20 11:14:03;;;;;;;21.90;20.70;;;;;;;;;;5077480;28;20445;-89
2023/07/20 11:16:34;;;;;;;22.13;20.70;;;;;;;;;;5083322;28;20434;-90
2023/07/20 11:19:01;;;;;;;22.30;21.00;;;;;;;;;;5080512;28;20434;-89
2023/07/20 11:21:28;;;;;;;21.90;20.60;;;;;;;;;;5075425;28;20454;-89
2023/07/20 11:23:56;;;;;;;22.60;21.30;;;;;;;;;;5074456;28;20800;-89
2023/07/20 11:26:25;;;;;;;22.63;21.33;;;;;;;;;;5075248;28;20472;-89
2023/07/20 11:28:52;;;;;;;22.30;20.90;;;;;;;;;;5074887;28;20449;-90
2023/07/20 11:31:19;;;;;;;22.07;20.77;;;;;;;;;;5075082;28;20458;-89
2023/07/20 11:33:47;;;;;;;22.90;21.60;;;;;;;;;;5074943;28;20400;-90
2023/07/20 11:36:14;;;;;;;22.80;21.50;;;;;;;;;;5074893;28;20438;-89
2023/07/20 11:38:43;;;;;;;23.57;22.17;;;;;;;;;;5074988;28;20525;-89
2023/07/20 11:41:10;;;;;;;24.03;22.63;;;;;;;;;;5075167;28;20452;-89
2023/07/20 11:43:42;;;;;;;23.47;22.07;;;;;;;;;;5074994;28;20436;-89
2023/07/20 11:46:10;;;;;;;23.07;21.67;;;;;;;;;;5075627;28;20468;-89
2023/07/20 11:48:39;;;;;;;24.10;22.50;;;;;;;;;;5074620;28;20455;-89
2023/07/20 11:51:06;;;;;;;23.77;22.37;;;;;;;;;;5075342;28;20448;-89
2023/07/20 11:53:33;;;;;;;24.00;22.50;;;;;;;;;;5074679;28;20979;-79
2023/07/20 11:56:01;;;;;;;24.47;22.97;;;;;;;;;;5074458;28;20416;-80
2023/07/20 11:58:29;;;;;;;24.60;23.10;;;;;;;;;;5073718;28;20458;-78
2023/07/20 12:00:57;;;;;;;23.43;21.90;;;;;;;;;;5071782;28;20470;-78
2023/07/20 12:03:24;;;;;;;23.80;22.40;;;;;;;;;;5072130;28;20433;-78
2023/07/20 12:05:51;;;;;;;23.60;22.20;;;;;;;;;;5071679;28;20463;-79
2023/07/20 12:08:18;;;;;;;23.40;22.00;;;;;;;;;;5071949;28;20445;-78
2023/07/20 12:10:46;;;;;;;22.37;20.97;;;;;;;;;;5071343;28;20455;-79
2023/07/20 12:13:13;;;;;;;23.10;21.70;;;;;;;;;;5071910;28;20467;-79
2023/07/20 12:15:40;;;;;;;23.60;22.30;;;;;;;;;;5074762;28;20446;-77
2023/07/20 12:18:09;;;;;;;23.00;21.53;;;;;;;;;;5072060;28;20909;-78
2023/07/20 12:20:37;;;;;;;23.10;21.70;;;;;;;;;;5072000;28;20504;-79
2023/07/20 12:23:05;;;;;;;24.47;22.90;;;;;;;;;;5072740;28;20454;-79
2023/07/20 12:25:38;;;;;;;23.77;22.37;;;;;;;;;;5073179;28;20576;-78
2023/07/20 12:28:06;;;;;;;23.47;22.07;;;;;;;;;;5074544;28;20525;-78
2023/07/20 12:30:33;;;;;;;23.07;21.77;;;;;;;;;;5075482;28;20449;-78
2023/07/20 12:33:00;;;;;;;23.87;22.47;;;;;;;;;;5075056;28;20464;-79
2023/07/20 12:35:29;;;;;;;23.60;22.20;;;;;;;;;;5077343;28;20506;-79
2023/07/20 12:37:56;;;;;;;23.63;22.23;;;;;;;;;;5078794;28;20481;-79
2023/07/20 12:40:23;;;;;;;24.00;22.50;;;;;;;;;;5078827;28;20404;-78
2023/07/20 12:42:50;;;;;;;22.60;21.30;;;;;;;;;;5079274;28;20450;-78
2023/07/20 12:45:18;;;;;;;23.00;21.53;;;;;;;;;;5077197;28;20543;-79
2023/07/20 12:47:45;;;;;;;24.10;22.60;;;;;;;;;;5077068;28;20414;-78
2023/07/20 12:50:12;;;;;;;22.30;21.00;;;;;;;;;;5075023;28;20446;-79
2023/07/20 12:52:41;;;;;;;22.60;21.30;;;;;;;;;;5077169;28;20470;-78
2023/07/20 12:55:09;;;;;;;23.53;22.23;;;;;;;;;;5076338;28;20449;-78
2023/07/20 12:57:36;;;;;;;23.20;21.90;;;;;;;;;;5077392;28;20517;-79
2023/07/20 13:00:04;;;;;;;23.17;21.87;;;;;;;;;;5078979;28;20436;-78
2023/07/20 13:02:31;;;;;;;22.60;21.40;;;;;;;;;;5078440;28;20436;-80
2023/07/20 13:04:58;;;;;;;21.13;20.03;;;;;;;;;;5080216;28;20527;-79
2023/07/20 13:07:31;;;;;;;22.90;21.60;;;;;;;;;;5079765;28;20435;-79
2023/07/20 13:10:00;;;;;;;22.23;20.93;;;;;;;;;;5079915;28;20426;-79
2023/07/20 13:12:27;;;;;;;22.30;20.73;;;;;;;;;;5079523;28;20857;-80
2023/07/20 13:14:54;;;;;;;22.60;21.30;;;;;;;;;;5079986;28;20441;-80
2023/07/20 13:17:21;;;;;;;23.17;21.77;;;;;;;;;;5078628;28;20449;-80
2023/07/20 13:19:48;;;;;;;22.93;21.63;;;;;;;;;;5077841;28;20438;-79
2023/07/20 13:22:15;;;;;;;22.63;21.20;;;;;;;;;;5078421;28;20815;-79
2023/07/20 13:24:42;;;;;;;23.77;22.43;;;;;;;;;;5078030;28;20463;-79
2023/07/20 13:27:11;;;;;;;22.70;21.40;;;;;;;;;;5077995;28;20445;-79
2023/07/20 13:29:38;;;;;;;22.83;21.53;;;;;;;;;;5079530;28;20424;-80
2023/07/20 13:32:06;;;;;;;22.47;21.13;;;;;;;;;;5079067;28;20456;-79
2023/07/20 13:34:33;;;;;;;22.00;20.70;;;;;;;;;;5078562;28;20442;-80
2023/07/20 13:37:00;;;;;;;22.17;20.87;;;;;;;;;;5079279;28;20424;-80
2023/07/20 13:39:27;;;;;;;22.13;20.93;;;;;;;;;;5078692;28;20433;-79
2023/07/20 13:41:55;;;;;;;21.73;20.43;;;;;;;;;;5079559;28;20477;-78
2023/07/20 13:44:23;;;;;;;21.50;20.30;;;;;;;;;;5076925;28;20502;-79
2023/07/20 13:46:50;;;;;;;22.80;21.40;;;;;;;;;;5074804;28;20450;-80
2023/07/20 13:49:18;;;;;;;21.33;20.13;;;;;;;;;;5074265;28;20438;-77
2023/07/20 13:51:45;;;;;;;21.83;20.63;;;;;;;;;;5073799;28;20473;-78
2023/07/20 13:54:12;;;;;;;22.00;20.70;;;;;;;;;;5073826;28;20433;-78
2023/07/20 13:56:39;;;;;;;21.00;19.77;;;;;;;;;;5067407;28;20451;-79
2023/07/20 13:59:06;;;;;;;21.60;20.40;;;;;;;;;;5052892;28;21147;-78
2023/07/20 14:01:35;;;;;;;22.10;20.73;;;;;;;;;;5052963;28;20461;-78
2023/07/20 14:04:02;;;;;;;21.80;20.57;;;;;;;;;;5053351;28;20835;-79
2023/07/20 14:06:29;;;;;;;22.30;20.63;;;;;;;;;;5053165;28;20514;-78
2023/07/20 14:08:56;;;;;;;21.40;20.20;;;;;;;;;;5052601;28;20497;-78
2023/07/20 14:11:24;;;;;;;22.20;21.00;;;;;;;;;;5053049;28;20536;-77
2023/07/20 14:13:52;;;;;;;23.03;21.53;;;;;;;;;;5052904;28;20941;-78
2023/07/20 14:16:20;;;;;;;22.17;20.97;;;;;;;;;;5053032;28;20442;-79
2023/07/20 14:18:48;;;;;;;21.57;20.37;;;;;;;;;;5052959;28;20455;-79
2023/07/20 14:21:15;;;;;;;22.40;21.10;;;;;;;;;;5053050;28;20537;-78